Time;durP1;ratioP1;P1;durP2;ratioP2;P2;SDS_P1;SDS_P2;PMS_P1;PMS_P2;Temp;Humidity;BMP_temperature;BMP_pressure;BME280_temperature;BME280_humidity;BME280_pressure;Samples;Min_cycle;Max_cycle;Signal;HPM_P1;HPM_P2
2022/10/02 00:02:27;;;;;;;1999.90;999.90;;;;;;;12.76;100.00;95240.78;6286463;22;20150;-71
2022/10/02 00:04:59;;;;;;;1999.90;999.90;;;;;;;12.71;100.00;95235.03;6261533;22;20177;-71
2022/10/02 00:07:39;;;;;;;1999.90;999.90;;;;;;;12.68;100.00;95233.16;6260785;22;20189;-71
2022/10/02 00:10:16;;;;;;;1999.90;999.90;;;;;;;12.68;100.00;95233.16;6261414;22;20251;-69
2022/10/02 00:12:44;;;;;;;1999.90;999.90;;;;;;;12.69;100.00;95237.44;6260374;22;20171;-71
2022/10/02 00:15:17;;;;;;;1999.90;999.90;;;;;;;12.68;100.00;95231.16;6260674;22;20389;-71
2022/10/02 00:17:46;;;;;;;1999.90;999.90;;;;;;;12.69;100.00;95231.94;6260607;22;20230;-71
2022/10/02 00:20:14;;;;;;;1999.90;999.90;;;;;;;12.69;100.00;95237.44;6261298;22;20154;-71
2022/10/02 00:22:57;;;;;;;1999.90;999.90;;;;;;;12.65;100.00;95231.25;6261404;22;20180;-70
2022/10/02 00:25:36;;;;;;;1999.90;999.90;;;;;;;12.64;100.00;95238.69;6260696;22;20177;-70
2022/10/02 00:28:02;;;;;;;1999.90;999.90;;;;;;;12.66;100.00;95246.47;6261124;22;20175;-72
2022/10/02 00:30:35;;;;;;;1999.90;999.90;;;;;;;12.67;100.00;95253.50;6286192;22;20226;-69
2022/10/02 00:33:04;;;;;;;1999.90;999.90;;;;;;;12.63;100.00;95241.84;6260735;22;20235;-67
2022/10/02 00:36:05;;;;;;;1999.90;999.90;;;;;;;12.56;100.00;95244.69;6286309;22;20173;-66
2022/10/02 00:38:40;;;;;;;1999.90;999.90;;;;;;;12.53;100.00;95231.88;6260519;22;20209;-66
2022/10/02 00:41:29;;;;;;;1999.90;999.90;;;;;;;12.48;100.00;95229.59;6286636;22;20174;-67
2022/10/02 00:44:16;;;;;;;1999.90;999.90;;;;;;;12.42;100.00;95221.09;6286196;22;20179;-66
2022/10/02 00:46:56;;;;;;;1999.90;999.90;;;;;;;12.41;100.00;95225.03;6286773;22;20169;-67
2022/10/02 00:49:56;;;;;;;1999.90;999.90;;;;;;;12.40;100.00;95200.78;6260730;22;20170;-67
2022/10/02 00:52:37;;;;;;;1999.90;999.90;;;;;;;12.39;100.00;95182.81;6225995;22;20221;-66
2022/10/02 00:55:27;;;;;;;1999.90;999.90;;;;;;;12.40;100.00;95173.41;6261101;22;20194;-66
2022/10/02 00:58:20;;;;;;;1999.90;999.90;;;;;;;12.35;100.00;95160.22;6286200;22;20187;-66
2022/10/02 01:00:54;;;;;;;1999.90;999.90;;;;;;;12.34;100.00;95155.91;6285979;22;20170;-66
2022/10/02 01:03:29;;;;;;;1999.90;999.90;;;;;;;12.35;100.00;95139.06;6260944;22;20178;-66
2022/10/02 01:05:54;;;;;;;1999.90;999.90;;;;;;;12.35;100.00;95138.31;6261031;22;20173;-66
2022/10/02 01:08:20;;;;;;;1999.90;999.90;;;;;;;12.37;100.00;95120.25;6261114;22;20171;-66
2022/10/02 01:10:46;;;;;;;1999.90;999.90;;;;;;;12.35;100.00;95108.19;6260420;22;20227;-67
2022/10/02 01:13:12;;;;;;;1999.90;999.90;;;;;;;12.34;100.00;95093.72;6260280;22;20171;-66
2022/10/02 01:15:43;;;;;;;1999.90;999.90;;;;;;;12.33;100.00;95089.44;6261067;22;20166;-66
2022/10/02 01:18:12;;;;;;;1999.90;999.90;;;;;;;12.35;100.00;95094.50;6260406;22;20251;-68
2022/10/02 01:20:41;;;;;;;1999.90;999.90;;;;;;;12.37;100.00;95086.63;6260884;22;20186;-69
2022/10/02 01:23:31;;;;;;;1999.90;999.90;;;;;;;12.37;100.00;95087.41;6285669;22;20246;-67
2022/10/02 01:25:57;;;;;;;1999.90;999.90;;;;;;;12.39;100.00;95090.47;6285832;22;20186;-68
2022/10/02 01:28:23;;;;;;;1999.90;999.90;;;;;;;12.41;100.00;95101.78;6260634;22;20193;-68
2022/10/02 01:30:52;;;;;;;1999.90;999.90;;;;;;;12.41;100.00;95093.56;6260459;22;20169;-67
2022/10/02 01:33:18;;;;;;;1999.90;999.90;;;;;;;12.42;100.00;95099.84;6260276;22;20166;-67
2022/10/02 01:35:44;;;;;;;1999.90;999.90;;;;;;;12.43;100.00;95093.16;6260654;22;20178;-68
2022/10/02 01:38:14;;;;;;;1999.90;999.90;;;;;;;12.42;100.00;95095.09;6260303;22;20183;-67
2022/10/02 01:40:41;;;;;;;1999.90;999.90;;;;;;;12.45;100.00;95082.53;6260611;22;20181;-67
2022/10/02 01:43:09;;;;;;;1999.90;999.90;;;;;;;12.44;100.00;95084.50;6260628;22;20243;-70
2022/10/02 01:45:40;;;;;;;1999.90;999.90;;;;;;;12.45;100.00;95088.00;6285616;22;20203;-71
2022/10/02 01:48:40;;;;;;;1999.90;999.90;;;;;;;12.45;100.00;95077.06;6286365;22;20396;-71
2022/10/02 01:51:25;;;;;;;1999.90;999.90;;;;;;;12.45;100.00;95077.06;6260318;22;20166;-69
2022/10/02 01:54:13;;;;;;;1999.90;999.90;;;;;;;12.39;100.00;95057.59;6260316;22;20178;-71
2022/10/02 01:56:47;;;;;;;1999.90;999.90;;;;;;;12.36;100.00;95063.16;6260203;22;20464;-71
2022/10/02 01:59:26;;;;;;;1999.90;999.90;;;;;;;12.35;100.00;95045.22;6286216;22;20241;-69
2022/10/02 02:01:57;;;;;;;1999.90;999.90;;;;;;;12.32;100.00;95049.53;6259742;22;20178;-69
2022/10/02 02:04:28;;;;;;;1999.90;999.90;;;;;;;12.30;100.00;95048.41;6260064;22;20172;-71
2022/10/02 02:07:13;;;;;;;1999.90;999.90;;;;;;;12.24;100.00;95028.22;6260294;22;20170;-70
2022/10/02 02:09:58;;;;;;;1999.90;999.90;;;;;;;12.20;100.00;95039.22;6260555;22;20349;-69
2022/10/02 02:12:37;;;;;;;1999.90;999.90;;;;;;;12.16;100.00;95052.22;6260911;22;20346;-71
2022/10/02 02:15:35;;;;;;;1999.90;999.90;;;;;;;12.16;100.00;95048.69;6259655;22;20468;-71
2022/10/02 02:18:12;;;;;;;1999.90;999.90;;;;;;;12.14;100.00;95062.06;6260169;22;20191;-68
2022/10/02 02:20:46;;;;;;;1999.90;999.90;;;;;;;12.15;100.00;95060.84;6260050;22;20175;-68
2022/10/02 02:23:16;;;;;;;1999.90;999.90;;;;;;;12.16;100.00;95056.91;6260119;22;20181;-69
2022/10/02 02:25:45;;;;;;;1999.90;999.90;;;;;;;12.15;100.00;95058.91;6259943;22;20166;-68
2022/10/02 02:28:14;;;;;;;1999.90;999.90;;;;;;;12.19;100.00;95058.81;6260367;22;20170;-69
2022/10/02 02:30:44;;;;;;;1999.90;999.90;;;;;;;12.21;100.00;95051.72;6260306;22;20236;-71
2022/10/02 02:33:16;;;;;;;1999.90;999.90;;;;;;;12.22;100.00;95041.56;6260448;22;20193;-70
2022/10/02 02:35:46;;;;;;;1999.90;999.90;;;;;;;12.25;100.00;95051.66;6260757;22;20215;-70
2022/10/02 02:38:23;;;;;;;1999.90;999.90;;;;;;;12.21;100.00;95050.97;6261162;22;20194;-71
2022/10/02 02:40:50;;;;;;;1999.90;999.90;;;;;;;12.23;100.00;95040.34;6261507;22;20166;-71
2022/10/02 02:43:28;;;;;;;1999.90;999.90;;;;;;;12.24;100.00;95050.88;6261076;22;20175;-73
2022/10/02 02:46:00;;;;;;;1999.90;999.90;;;;;;;12.25;100.00;95052.44;6261692;22;20223;-71
2022/10/02 02:48:31;;;;;;;1999.90;999.90;;;;;;;12.26;100.00;95053.19;6261016;22;20230;-71
2022/10/02 02:51:03;;;;;;;1999.90;999.90;;;;;;;12.29;100.00;95052.34;6261477;22;20170;-68
2022/10/02 02:53:41;;;;;;;1999.90;999.90;;;;;;;12.31;100.00;95056.22;6261725;22;20395;-69
2022/10/02 02:56:11;;;;;;;1999.90;999.90;;;;;;;12.31;100.00;95050.75;6261175;22;20175;-70
2022/10/02 02:58:44;;;;;;;1999.90;999.90;;;;;;;12.31;100.00;95045.25;6261192;22;20191;-70
2022/10/02 03:01:10;;;;;;;1999.90;999.90;;;;;;;12.35;100.00;95043.22;6261227;22;20177;-73
2022/10/02 03:03:35;;;;;;;1999.90;999.90;;;;;;;12.34;100.00;95043.63;6261635;22;20197;-72
2022/10/02 03:06:03;;;;;;;1999.90;999.90;;;;;;;12.35;100.00;95045.97;6261023;22;20167;-75
2022/10/02 03:08:32;;;;;;;1999.90;999.90;;;;;;;12.33;100.00;95056.56;6286817;22;20246;-74
2022/10/02 03:11:23;;;;;;;1999.90;999.90;;;;;;;12.36;100.00;95063.16;6261236;22;20176;-72
2022/10/02 03:14:16;;;;;;;1999.90;999.90;;;;;;;12.34;100.00;95065.53;6287034;22;20479;-72
2022/10/02 03:16:41;;;;;;;1999.90;999.90;;;;;;;12.33;100.00;95069.50;6260746;22;20237;-73
2022/10/02 03:19:13;;;;;;;1999.90;999.90;;;;;;;12.34;100.00;95062.81;6286964;22;20188;-73
2022/10/02 03:21:53;;;;;;;1999.90;999.90;;;;;;;12.36;100.00;95063.97;6261533;22;20193;-75
2022/10/02 03:25:03;;;;;;;1999.90;999.90;;;;;;;12.36;100.00;95066.69;6260726;22;20210;-75
2022/10/02 03:27:38;;;;;;;1999.90;999.90;;;;;;;12.36;100.00;95058.47;6286743;22;20179;-77
2022/10/02 03:30:07;;;;;;;1999.90;999.90;;;;;;;12.38;100.00;95049.81;6261519;22;20201;-75
2022/10/02 03:32:34;;;;;;;1999.90;999.90;;;;;;;12.38;100.00;95058.81;6260976;22;20243;-76
2022/10/02 03:35:02;;;;;;;1999.90;999.90;;;;;;;12.38;100.00;95055.28;6260858;22;20466;-76
2022/10/02 03:37:28;;;;;;;1999.90;999.90;;;;;;;12.37;100.00;95056.50;6286959;22;20175;-72
2022/10/02 03:39:57;;;;;;;1999.90;999.90;;;;;;;12.36;100.00;95046.75;6260970;22;20188;-75
2022/10/02 03:42:25;;;;;;;1999.90;999.90;;;;;;;12.36;100.00;95063.97;6260833;22;20180;-76
2022/10/02 03:44:51;;;;;;;1999.90;999.90;;;;;;;12.38;100.00;95058.03;6261302;22;20197;-74
2022/10/02 03:47:16;;;;;;;1999.90;999.90;;;;;;;12.38;100.00;95061.53;6260246;22;20165;-71
2022/10/02 03:49:41;;;;;;;1999.90;999.90;;;;;;;12.36;100.00;95053.00;6261459;22;20175;-73
2022/10/02 03:52:15;;;;;;;1999.90;999.90;;;;;;;12.40;100.00;95059.19;6260785;22;20178;-75
2022/10/02 03:54:40;;;;;;;1999.90;999.90;;;;;;;12.40;100.00;95053.69;6261177;22;20510;-74
2022/10/02 03:57:10;;;;;;;1999.90;999.90;;;;;;;12.39;100.00;95054.88;6260698;22;20171;-74
2022/10/02 03:59:45;;;;;;;1999.90;999.90;;;;;;;12.41;100.00;95054.44;6260558;22;20258;-70
2022/10/02 04:02:37;;;;;;;1999.90;999.90;;;;;;;12.44;100.00;95040.69;6260932;22;20521;-73
2022/10/02 04:05:19;;;;;;;1999.90;999.90;;;;;;;12.45;100.00;95044.19;6226389;22;20480;-71
2022/10/02 04:07:48;;;;;;;1999.90;999.90;;;;;;;12.44;100.00;95053.59;6261134;22;20171;-73
2022/10/02 04:10:26;;;;;;;1999.90;999.90;;;;;;;12.44;100.00;95053.59;6261089;22;20170;-68
2022/10/02 04:12:58;;;;;;;1999.90;999.90;;;;;;;12.45;100.00;95049.66;6286817;22;20284;-72
2022/10/02 04:15:32;;;;;;;1999.90;999.90;;;;;;;12.45;100.00;95046.94;6260808;22;20176;-71
2022/10/02 04:18:00;;;;;;;1999.90;999.90;;;;;;;12.47;100.00;95052.78;6260797;22;20170;-71
2022/10/02 04:20:34;;;;;;;1999.90;999.90;;;;;;;12.45;100.00;95046.94;6260792;22;20172;-72
2022/10/02 04:23:13;;;;;;;1999.90;999.90;;;;;;;12.48;100.00;95051.56;6260809;22;20178;-74
2022/10/02 04:25:44;;;;;;;1999.90;999.90;;;;;;;12.49;100.00;95053.09;6260790;22;20180;-71
2022/10/02 04:28:16;;;;;;;1999.90;999.90;;;;;;;12.51;100.00;95043.28;6261358;22;20166;-71
2022/10/02 04:30:41;;;;;;;1999.90;999.90;;;;;;;12.49;100.00;95056.63;6260830;22;20179;-71
2022/10/02 04:33:13;;;;;;;1999.90;999.90;;;;;;;12.51;100.00;95050.72;6260675;22;20188;-71
2022/10/02 04:35:50;;;;;;;1999.90;999.90;;;;;;;12.48;100.00;95049.59;6260655;22;20175;-70
2022/10/02 04:38:15;;;;;;;1999.90;999.90;;;;;;;12.48;100.00;95040.63;6260787;22;20235;-71
2022/10/02 04:40:49;;;;;;;1999.90;999.90;;;;;;;12.53;100.00;95049.09;6286665;22;20180;-71
2022/10/02 04:43:32;;;;;;;1999.90;999.90;;;;;;;12.52;100.00;95046.78;6286963;22;20181;-71
2022/10/02 04:46:13;;;;;;;1999.90;999.90;;;;;;;12.52;100.00;95046.78;6286719;22;20182;-71
2022/10/02 04:49:00;;;;;;;1999.90;999.90;;;;;;;12.54;100.00;95038.94;6286749;22;20176;-71
2022/10/02 04:51:52;;;;;;;1999.90;999.90;;;;;;;12.56;100.00;95044.75;6286519;22;20175;-72
2022/10/02 04:54:20;;;;;;;1999.90;999.90;;;;;;;12.57;100.00;95049.03;6286187;22;20167;-70
2022/10/02 04:56:52;;;;;;;1999.90;999.90;;;;;;;12.56;100.00;95042.78;6286034;22;20393;-70
2022/10/02 04:59:23;;;;;;;1999.90;999.90;;;;;;;12.57;100.00;95040.81;6286218;22;20181;-69
2022/10/02 05:01:58;;;;;;;1999.90;999.90;;;;;;;12.56;100.00;95044.75;6286545;22;20417;-72
2022/10/02 05:04:49;;;;;;;1999.90;999.90;;;;;;;12.56;100.00;95033.78;6286734;22;20181;-71
2022/10/02 05:07:23;;;;;;;1999.90;999.90;;;;;;;12.55;100.00;95026.75;6286318;22;20178;-71
2022/10/02 05:10:19;;;;;;;1999.90;999.90;;;;;;;12.54;100.00;95025.22;6260342;22;20245;-72
2022/10/02 05:13:06;;;;;;;1999.90;999.90;;;;;;;12.53;100.00;95029.94;6286266;22;20193;-72
2022/10/02 05:15:34;;;;;;;1999.90;999.90;;;;;;;12.55;100.00;95037.72;6285969;22;20184;-73
2022/10/02 05:18:06;;;;;;;1999.90;999.90;;;;;;;12.53;100.00;95040.13;6285962;22;20167;-72
2022/10/02 05:20:57;;;;;;;1999.90;999.90;;;;;;;12.54;100.00;95041.66;6286133;22;20508;-71
2022/10/02 05:23:34;;;;;;;1999.90;999.90;;;;;;;12.56;100.00;95042.00;6260521;22;20220;-71
2022/10/02 05:26:14;;;;;;;1999.90;999.90;;;;;;;12.56;100.00;95036.53;6260478;22;20200;-72
2022/10/02 05:28:58;;;;;;;1999.90;999.90;;;;;;;12.54;100.00;95036.19;6286538;22;20148;-72
2022/10/02 05:31:53;;;;;;;1999.90;999.90;;;;;;;12.55;100.00;95029.50;6286015;22;20179;-72
2022/10/02 05:34:28;;;;;;;1999.90;999.90;;;;;;;12.56;100.00;95028.31;6251777;22;20200;-73
2022/10/02 05:37:17;;;;;;;1999.90;999.90;;;;;;;12.57;100.00;95029.88;6260467;22;20182;-72
2022/10/02 05:40:21;;;;;;;1999.90;999.90;;;;;;;12.57;100.00;95036.09;6286204;22;20250;-72
2022/10/02 05:43:32;;;;;;;1999.90;999.90;;;;;;;12.57;100.00;95033.34;6205136;22;20183;-72
2022/10/02 05:46:04;;;;;;;1999.90;999.90;;;;;;;12.55;100.00;95037.72;6286484;22;20224;-71
2022/10/02 05:48:40;;;;;;;1999.90;999.90;;;;;;;12.56;100.00;95025.56;6260551;22;20197;-72
2022/10/02 05:51:25;;;;;;;1999.90;999.90;;;;;;;12.58;100.00;95023.19;6260743;22;20151;-72
2022/10/02 05:54:02;;;;;;;1999.90;999.90;;;;;;;12.61;100.00;95003.16;6260630;22;20179;-72
2022/10/02 05:56:59;;;;;;;1999.90;999.90;;;;;;;12.60;100.00;95018.81;6260893;22;20179;-73
2022/10/02 05:59:36;;;;;;;1999.90;999.90;;;;;;;12.64;100.00;95024.22;6243010;22;20186;-70
2022/10/02 06:02:22;;;;;;;1999.90;999.90;;;;;;;12.65;100.00;95025.78;6260935;22;20177;-71
2022/10/02 06:04:56;;;;;;;1999.90;999.90;;;;;;;12.63;100.00;95022.66;6260060;22;20175;-68
2022/10/02 06:07:24;;;;;;;1999.90;999.90;;;;;;;12.62;100.00;95032.09;6260461;22;20224;-68
2022/10/02 06:10:01;;;;;;;1999.90;999.90;;;;;;;12.62;100.00;95032.09;6259489;22;20174;-67
2022/10/02 06:12:37;;;;;;;1999.90;999.90;;;;;;;12.64;100.00;95029.72;6260376;22;20253;-67
2022/10/02 06:15:18;;;;;;;1999.90;999.90;;;;;;;12.64;100.00;95024.22;6260566;22;20170;-67
2022/10/02 06:17:49;;;;;;;1999.90;999.90;;;;;;;12.66;100.00;95027.31;6260553;22;20173;-66
2022/10/02 06:20:31;;;;;;;1999.90;999.90;;;;;;;12.63;100.00;95033.63;6260649;22;20221;-68
2022/10/02 06:23:03;;;;;;;1999.90;999.90;;;;;;;12.65;100.00;95025.78;6259730;22;20186;-67
2022/10/02 06:25:34;;;;;;;1999.90;999.90;;;;;;;12.67;100.00;95035.09;6260022;22;20183;-66
2022/10/02 06:28:09;;;;;;;1999.90;999.90;;;;;;;12.69;100.00;95037.41;6260446;22;20226;-66
2022/10/02 06:30:40;;;;;;;1999.90;999.90;;;;;;;12.68;100.00;95035.88;6260042;22;20194;-67
2022/10/02 06:33:14;;;;;;;1999.90;999.90;;;;;;;12.69;100.00;95027.25;6260634;22;20177;-66
2022/10/02 06:36:21;;;;;;;1999.90;999.90;;;;;;;12.68;100.00;95020.19;6259710;22;20162;-66
2022/10/02 06:39:02;;;;;;;1999.90;999.90;;;;;;;12.70;100.00;95017.03;6260139;22;20201;-65
2022/10/02 06:41:37;;;;;;;1999.90;999.90;;;;;;;12.72;100.00;95025.63;6285493;22;20193;-65
2022/10/02 06:44:19;;;;;;;1999.90;999.90;;;;;;;12.73;100.00;95016.19;6260022;22;20174;-66
2022/10/02 06:47:07;;;;;;;1999.90;999.90;;;;;;;12.71;100.00;95018.56;6259914;22;20177;-67
2022/10/02 06:49:52;;;;;;;1999.90;999.90;;;;;;;12.69;100.00;95004.53;6286114;22;20165;-66
2022/10/02 06:52:29;;;;;;;1999.90;999.90;;;;;;;12.74;100.00;95001.28;6259994;22;20234;-67
2022/10/02 06:55:20;;;;;;;1999.90;999.90;;;;;;;12.76;100.00;94987.94;6285789;22;20177;-67
2022/10/02 06:57:47;;;;;;;1999.90;999.90;;;;;;;12.73;100.00;94997.78;6285004;22;20185;-67
2022/10/02 07:00:17;;;;;;;1999.90;999.90;;;;;;;12.74;100.00;95006.75;6285384;22;20170;-66
2022/10/02 07:03:05;;;;;;;1999.90;999.90;;;;;;;12.76;100.00;94993.44;6259646;22;20170;-68
2022/10/02 07:05:47;;;;;;;1999.90;999.90;;;;;;;12.81;100.00;94998.38;6285794;22;20179;-66
2022/10/02 07:08:15;;;;;;;1999.90;999.90;;;;;;;12.85;100.00;95001.81;6259360;22;20170;-66
2022/10/02 07:10:48;;;;;;;1999.90;999.90;;;;;;;12.88;100.00;95000.97;6285118;22;20206;-67
2022/10/02 07:13:58;;;;;;;1999.90;999.90;;;;;;;12.91;100.00;95000.13;6259887;22;20480;-66
2022/10/02 07:17:03;;;;;;;1999.90;999.90;;;;;;;12.95;100.00;94996.09;6259492;22;20227;-67
2022/10/02 07:19:42;;;;;;;1999.90;999.90;;;;;;;12.95;100.00;94978.88;6285526;22;20301;-66
2022/10/02 07:22:16;;;;;;;1999.90;999.90;;;;;;;13.00;100.00;94975.63;6260366;22;20169;-66
2022/10/02 07:24:44;;;;;;;1999.90;999.90;;;;;;;13.03;100.00;94985.75;6261016;22;20184;-66
2022/10/02 07:27:51;;;;;;;1999.90;999.90;;;;;;;13.06;100.00;94984.91;6286520;22;20172;-66
2022/10/02 07:30:17;;;;;;;1999.90;999.90;;;;;;;13.07;100.00;94986.44;6261342;22;20179;-67
2022/10/02 07:32:47;;;;;;;1999.90;999.90;;;;;;;13.07;100.00;94980.94;6261418;22;20191;-67
2022/10/02 07:35:33;;;;;;;1999.90;999.90;;;;;;;13.08;100.00;94982.50;6286753;22;20186;-67
2022/10/02 07:38:41;;;;;;;1999.90;999.90;;;;;;;13.06;100.00;94982.16;6261467;22;20195;-68
2022/10/02 07:41:23;;;;;;;1999.90;999.90;;;;;;;13.07;100.00;94987.22;6239491;22;20265;-67
2022/10/02 07:44:14;;;;;;;1999.90;999.90;;;;;;;13.12;100.00;94988.69;6261234;22;20214;-67
2022/10/02 07:46:58;;;;;;;1999.90;999.90;;;;;;;13.13;100.00;94990.22;6257599;22;20238;-68
2022/10/02 07:49:27;;;;;;;1999.90;999.90;;;;;;;13.12;100.00;94983.94;6286594;22;20520;-68
2022/10/02 07:51:59;;;;;;;1999.90;999.90;;;;;;;13.16;100.00;94992.09;6286889;22;20186;-67
2022/10/02 07:54:52;;;;;;;1999.90;999.90;;;;;;;13.22;100.00;94987.63;6260841;22;20180;-69
2022/10/02 07:57:29;;;;;;;1999.90;999.90;;;;;;;13.17;100.00;94985.41;6286531;22;20182;-69
2022/10/02 08:00:19;;;;;;;1999.90;999.90;;;;;;;13.19;100.00;94983.03;6286791;22;20187;-70
2022/10/02 08:03:09;;;;;;;1999.90;999.90;;;;;;;13.26;100.00;94971.88;6285237;22;20177;-70
2022/10/02 08:05:45;;;;;;;1999.90;999.90;;;;;;;13.29;100.00;94971.78;6286578;22;20179;-70
2022/10/02 08:08:43;;;;;;;1999.90;999.90;;;;;;;13.37;100.00;94983.34;6260699;22;20215;-71
2022/10/02 08:11:11;;;;;;;1999.90;999.90;;;;;;;13.45;100.00;94981.19;6229625;22;20183;-70
2022/10/02 08:13:44;;;;;;;1999.90;999.90;;;;;;;13.51;100.00;94982.19;6260434;22;20194;-70
2022/10/02 08:16:12;;;;;;;1999.90;999.90;;;;;;;13.54;100.00;94981.34;6260863;22;20176;-69
2022/10/02 08:18:43;;;;;;;1999.90;999.90;;;;;;;13.55;100.00;94989.13;6260271;22;20187;-68
2022/10/02 08:21:14;;;;;;;1999.90;999.90;;;;;;;13.65;100.00;94977.09;6260606;22;20266;-69
2022/10/02 08:23:57;;;;;;;1999.90;999.90;;;;;;;13.65;100.00;94981.84;6260996;22;20186;-69
2022/10/02 08:26:46;;;;;;;1999.90;999.90;;;;;;;13.72;100.00;94985.16;6261076;22;20152;-69
2022/10/02 08:29:20;;;;;;;1999.90;999.90;;;;;;;13.77;100.00;94987.34;6260713;22;20176;-68
2022/10/02 08:31:48;;;;;;;1999.90;999.90;;;;;;;13.83;100.00;94987.59;6286499;22;20237;-70
2022/10/02 08:34:22;;;;;;;1999.90;999.90;;;;;;;13.88;100.00;94990.56;6260533;22;20181;-70
2022/10/02 08:37:32;;;;;;;1999.90;999.90;;;;;;;13.82;100.00;95003.31;6260459;22;20171;-70
2022/10/02 08:40:13;;;;;;;1999.90;999.90;;;;;;;13.87;100.00;95000.03;6193883;23;20253;-71
2022/10/02 08:43:37;;;;;;;1999.90;999.90;;;;;;;13.93;100.00;94992.81;6276317;22;20176;-70
2022/10/02 08:46:03;;;;;;;1999.90;999.90;;;;;;;14.00;100.00;95000.06;6169142;23;20182;-70
2022/10/02 08:48:54;;;;;;;1999.90;999.90;;;;;;;14.10;100.00;94997.03;6169856;23;20202;-70
2022/10/02 08:51:38;;;;;;;1999.90;999.90;;;;;;;14.33;100.00;94994.03;6224965;22;20179;-70
2022/10/02 08:54:23;;;;;;;1999.90;999.90;;;;;;;14.39;100.00;94997.03;6286054;22;20477;-70
2022/10/02 08:57:13;;;;;;;1999.90;999.90;;;;;;;14.42;100.00;95007.91;6260908;22;20210;-69
2022/10/02 08:59:57;;;;;;;1999.90;999.90;;;;;;;14.41;100.00;95017.34;6261006;22;20255;-70
2022/10/02 09:02:44;;;;;;;1999.90;999.90;;;;;;;14.36;100.00;95030.84;6285998;22;20163;-70
2022/10/02 09:05:29;;;;;;;1999.90;999.90;;;;;;;14.31;100.00;95026.66;6286214;22;20175;-69
2022/10/02 09:08:19;;;;;;;1999.90;999.90;;;;;;;14.30;100.00;95027.88;6285831;22;20239;-69
2022/10/02 09:11:03;;;;;;;1999.90;999.90;;;;;;;14.32;100.00;95022.72;6285934;22;20179;-70
2022/10/02 09:13:28;;;;;;;1999.90;999.90;;;;;;;14.40;100.00;95015.03;6286085;22;20172;-70
2022/10/02 09:16:25;;;;;;;1999.90;999.90;;;;;;;14.52;100.00;95012.31;6285883;22;20176;-70
2022/10/02 09:19:02;;;;;;;1999.90;999.90;;;;;;;14.62;100.00;94997.50;6285661;22;20215;-70
2022/10/02 09:21:55;;;;;;;1999.90;999.90;;;;;;;14.79;100.00;95003.66;6260673;22;20421;-70
2022/10/02 09:24:48;;;;;;;1999.90;999.90;;;;;;;14.94;100.00;94994.50;6260429;22;20196;-70
2022/10/02 09:27:17;;;;;;;1999.90;999.90;;;;;;;15.07;100.00;94998.03;6285900;22;20152;-70
2022/10/02 09:29:50;;;;;;;1999.90;999.90;;;;;;;15.17;100.00;95001.66;6286641;22;20198;-71
2022/10/02 09:32:33;;;;;;;1999.90;999.90;;;;;;;15.26;100.00;95010.03;6260645;22;20176;-70
2022/10/02 09:35:17;;;;;;;1999.90;999.90;;;;;;;15.36;100.00;95003.41;6285822;22;20179;-71
2022/10/02 09:38:12;;;;;;;1999.90;999.90;;;;;;;15.45;100.00;95009.03;6285939;22;20168;-72
2022/10/02 09:40:41;;;;;;;1999.90;999.90;;;;;;;15.48;100.00;95008.91;6260945;22;20153;-73
2022/10/02 09:43:36;;;;;;;1999.90;999.90;;;;;;;15.53;100.00;95019.38;6286711;22;20207;-71
2022/10/02 09:46:26;;;;;;;1999.90;999.90;;;;;;;15.62;100.00;95011.19;6231398;22;20169;-72
2022/10/02 09:49:16;;;;;;;1999.90;999.90;;;;;;;15.67;100.00;95012.59;6286343;22;20180;-74
2022/10/02 09:51:52;;;;;;;1999.90;999.90;;;;;;;15.64;100.00;95013.50;6285466;22;20199;-76
2022/10/02 09:54:46;;;;;;;1999.90;999.90;;;;;;;15.60;100.00;95021.88;6260062;22;20176;-72
2022/10/02 09:57:34;;;;;;;1999.90;999.90;;;;;;;15.58;100.00;95020.75;6260181;22;20172;-73
2022/10/02 10:00:25;;;;;;;1999.90;999.90;;;;;;;15.58;100.00;95020.75;6286462;22;20203;-73
2022/10/02 10:03:18;;;;;;;1999.90;999.90;;;;;;;15.80;100.00;95027.09;6286313;22;20203;-73
2022/10/02 10:06:05;;;;;;;1999.90;999.90;;;;;;;15.92;100.00;95016.03;6285791;22;20172;-71
2022/10/02 10:09:07;;;;;;;1999.90;999.90;;;;;;;16.00;100.00;95014.56;6285735;22;20168;-70
2022/10/02 10:11:46;;;;;;;1999.90;999.90;;;;;;;16.03;100.00;95027.44;6260211;22;20172;-71
2022/10/02 10:14:50;;;;;;;1999.90;999.90;;;;;;;15.97;100.00;95032.00;6286326;22;20168;-73
2022/10/02 10:17:19;;;;;;;1999.90;999.90;;;;;;;15.98;100.00;95032.75;6226959;22;20208;-70
2022/10/02 10:20:08;;;;;;;1999.90;999.90;;;;;;;16.16;100.00;95038.41;6285590;22;20191;-70
2022/10/02 10:23:12;;;;;;;1999.90;999.90;;;;;;;16.37;100.00;95043.94;6260324;22;20179;-72
2022/10/02 10:25:58;;;;;;;1999.90;999.90;;;;;;;16.56;100.00;95047.63;6246396;22;20164;-72
2022/10/02 10:28:51;;;;;;;1999.90;999.90;;;;;;;16.73;100.00;95042.66;6259799;22;20183;-72
2022/10/02 10:31:48;;;;;;;1999.90;999.90;;;;;;;16.76;100.00;95041.75;6285656;22;20235;-72
2022/10/02 10:34:19;;;;;;;1999.90;999.90;;;;;;;16.97;100.00;95036.19;6285369;22;20197;-72
2022/10/02 10:40:14;;;;;;;1999.90;999.90;;;;;;;17.10;100.00;95063.69;6286559;22;20188;-73
2022/10/02 10:42:58;;;;;;;1999.90;999.90;;;;;;;17.22;100.00;95071.13;6285670;22;20168;-74
2022/10/02 10:45:42;;;;;;;1999.90;999.90;;;;;;;17.37;100.00;95077.63;6285705;22;20172;-74
2022/10/02 10:48:38;;;;;;;1999.90;999.90;;;;;;;17.39;100.00;95073.19;6260407;22;20174;-74
2022/10/02 10:51:22;;;;;;;1999.90;999.90;;;;;;;17.52;100.00;95078.63;6285060;22;20222;-74
2022/10/02 10:54:21;;;;;;;1999.90;999.90;;;;;;;17.57;100.00;95078.03;6285723;22;20215;-74
2022/10/02 10:57:10;;;;;;;1999.90;999.90;;;;;;;17.79;100.00;95070.41;6286010;22;20172;-73
2022/10/02 10:59:50;;;;;;;1999.90;999.90;;;;;;;18.21;100.00;95068.63;6261460;22;20191;-74
2022/10/02 11:02:42;;;;;;;1999.90;999.90;;;;;;;18.35;100.00;95071.56;6287346;22;20231;-74
2022/10/02 11:05:20;;;;;;;1999.90;999.90;;;;;;;18.40;100.00;95084.03;6286817;22;20187;-74
2022/10/02 11:07:57;;;;;;;1999.90;999.90;;;;;;;18.70;100.00;95081.09;6286711;22;20171;-74
2022/10/02 11:10:54;;;;;;;1999.90;999.90;;;;;;;18.95;100.00;95071.66;6286197;22;20182;-74
2022/10/02 11:13:43;;;;;;;1999.90;999.90;;;;;;;19.06;100.00;95075.47;6287183;22;20488;-74
2022/10/02 11:16:22;;;;;;;1999.90;999.90;;;;;;;19.10;100.00;95072.53;6286652;22;20173;-74
2022/10/02 11:19:47;;;;;;;1999.90;999.90;;;;;;;18.97;100.00;95067.19;6286647;22;20239;-74
2022/10/02 11:22:21;;;;;;;1999.90;999.90;;;;;;;19.01;100.00;95067.00;6170221;23;20181;-75
2022/10/02 11:25:15;;;;;;;1999.90;999.90;;;;;;;18.72;100.00;95080.63;6169711;23;20181;-72
2022/10/02 11:27:46;;;;;;;1999.90;999.90;;;;;;;18.69;100.00;95081.56;6246731;22;20183;-73
2022/10/02 11:30:19;;;;;;;1999.90;999.90;;;;;;;18.71;100.00;95087.38;6286515;22;20168;-73
2022/10/02 11:33:03;;;;;;;1999.90;999.90;;;;;;;18.77;100.00;95075.25;6286523;22;20207;-73
2022/10/02 11:35:47;;;;;;;1999.90;999.90;;;;;;;18.79;100.00;95063.69;6261634;22;20148;-73
2022/10/02 11:38:30;;;;;;;1999.90;999.90;;;;;;;18.90;100.00;95066.75;6260796;22;20184;-73
2022/10/02 11:41:04;;;;;;;1999.90;999.90;;;;;;;19.12;100.00;95057.00;6260655;22;20223;-74
2022/10/02 11:43:57;;;;;;;1999.90;999.90;;;;;;;19.10;100.00;95053.16;6286561;22;20167;-73
2022/10/02 11:46:33;;;;;;;1999.90;999.90;;;;;;;19.31;100.00;95057.75;6260343;22;20165;-73